sensor_id;sensor_type;location;lat;lon;timestamp;temperature;humidity
13322;DHT22;6730;46.248;6.930;2023-10-31T00:00:48;10.60;99.90
13322;DHT22;6730;46.248;6.930;2023-10-31T00:03:13;10.70;99.90
13322;DHT22;6730;46.248;6.930;2023-10-31T00:05:39;10.80;99.90
13322;DHT22;6730;46.248;6.930;2023-10-31T00:08:05;10.80;99.90
13322;DHT22;6730;46.248;6.930;2023-10-31T00:10:30;10.60;99.90
13322;DHT22;6730;46.248;6.930;2023-10-31T00:12:56;10.70;99.90
13322;DHT22;6730;46.248;6.930;2023-10-31T00:15:22;10.60;99.90
13322;DHT22;6730;46.248;6.930;2023-10-31T00:17:50;10.70;99.90
13322;DHT22;6730;46.248;6.930;2023-10-31T00:20:15;10.90;99.90
13322;DHT22;6730;46.248;6.930;2023-10-31T00:22:41;11.20;99.90
13322;DHT22;6730;46.248;6.930;2023-10-31T00:25:07;11.50;99.90
13322;DHT22;6730;46.248;6.930;2023-10-31T00:27:32;11.50;99.90
13322;DHT22;6730;46.248;6.930;2023-10-31T00:29:58;11.30;99.90
13322;DHT22;6730;46.248;6.930;2023-10-31T00:32:24;11.20;99.90
13322;DHT22;6730;46.248;6.930;2023-10-31T00:34:51;11.20;99.90
13322;DHT22;6730;46.248;6.930;2023-10-31T00:37:16;11.10;99.90
13322;DHT22;6730;46.248;6.930;2023-10-31T00:39:42;11.40;99.90
13322;DHT22;6730;46.248;6.930;2023-10-31T00:42:08;11.50;99.90
13322;DHT22;6730;46.248;6.930;2023-10-31T00:44:33;11.60;99.90
13322;DHT22;6730;46.248;6.930;2023-10-31T00:46:59;11.20;99.90
13322;DHT22;6730;46.248;6.930;2023-10-31T00:49:25;11.30;99.90
13322;DHT22;6730;46.248;6.930;2023-10-31T00:51:50;11.20;99.90
13322;DHT22;6730;46.248;6.930;2023-10-31T00:54:16;11.00;99.90
13322;DHT22;6730;46.248;6.930;2023-10-31T00:56:41;11.30;99.90
13322;DHT22;6730;46.248;6.930;2023-10-31T00:59:07;11.50;99.90
13322;DHT22;6730;46.248;6.930;2023-10-31T01:01:33;11.30;99.90
13322;DHT22;6730;46.248;6.930;2023-10-31T01:03:58;11.20;99.90
13322;DHT22;6730;46.248;6.930;2023-10-31T01:06:24;11.10;99.90
13322;DHT22;6730;46.248;6.930;2023-10-31T01:08:50;11.10;99.90
13322;DHT22;6730;46.248;6.930;2023-10-31T01:11:15;11.10;99.90
13322;DHT22;6730;46.248;6.930;2023-10-31T01:13:41;11.00;99.90
13322;DHT22;6730;46.248;6.930;2023-10-31T01:16:07;11.20;99.90
13322;DHT22;6730;46.248;6.930;2023-10-31T01:18:32;11.20;99.90
13322;DHT22;6730;46.248;6.930;2023-10-31T01:20:58;11.20;99.90
13322;DHT22;6730;46.248;6.930;2023-10-31T01:23:24;11.30;99.90
13322;DHT22;6730;46.248;6.930;2023-10-31T01:25:49;11.40;99.90
13322;DHT22;6730;46.248;6.930;2023-10-31T01:28:15;11.40;99.90
13322;DHT22;6730;46.248;6.930;2023-10-31T01:30:41;11.10;99.90
13322;DHT22;6730;46.248;6.930;2023-10-31T01:33:06;11.10;99.90
13322;DHT22;6730;46.248;6.930;2023-10-31T01:35:32;10.90;99.90
13322;DHT22;6730;46.248;6.930;2023-10-31T01:37:57;10.70;99.90
13322;DHT22;6730;46.248;6.930;2023-10-31T01:40:23;10.50;99.90
13322;DHT22;6730;46.248;6.930;2023-10-31T01:42:49;10.50;99.90
13322;DHT22;6730;46.248;6.930;2023-10-31T01:45:14;10.40;99.90
13322;DHT22;6730;46.248;6.930;2023-10-31T01:47:40;10.30;99.90
13322;DHT22;6730;46.248;6.930;2023-10-31T01:50:08;10.20;99.90
13322;DHT22;6730;46.248;6.930;2023-10-31T01:52:35;10.00;99.90
13322;DHT22;6730;46.248;6.930;2023-10-31T01:55:02;9.70;99.90
13322;DHT22;6730;46.248;6.930;2023-10-31T01:57:30;9.60;99.90
13322;DHT22;6730;46.248;6.930;2023-10-31T01:59:55;9.90;99.90
13322;DHT22;6730;46.248;6.930;2023-10-31T02:02:23;10.20;99.90
13322;DHT22;6730;46.248;6.930;2023-10-31T02:04:50;10.40;99.90
13322;DHT22;6730;46.248;6.930;2023-10-31T02:07:16;10.40;99.90
13322;DHT22;6730;46.248;6.930;2023-10-31T02:09:41;10.10;99.90
13322;DHT22;6730;46.248;6.930;2023-10-31T02:12:07;10.30;99.90
13322;DHT22;6730;46.248;6.930;2023-10-31T02:14:33;10.30;99.90
13322;DHT22;6730;46.248;6.930;2023-10-31T02:16:58;10.30;99.90
13322;DHT22;6730;46.248;6.930;2023-10-31T02:19:24;10.50;99.90
13322;DHT22;6730;46.248;6.930;2023-10-31T02:21:50;10.70;99.90
13322;DHT22;6730;46.248;6.930;2023-10-31T02:24:15;10.60;99.90
13322;DHT22;6730;46.248;6.930;2023-10-31T02:26:43;10.60;99.90
13322;DHT22;6730;46.248;6.930;2023-10-31T02:29:09;10.70;99.90
13322;DHT22;6730;46.248;6.930;2023-10-31T02:31:34;10.60;99.90
13322;DHT22;6730;46.248;6.930;2023-10-31T02:34:00;10.70;99.90
13322;DHT22;6730;46.248;6.930;2023-10-31T02:36:26;10.70;99.90
13322;DHT22;6730;46.248;6.930;2023-10-31T02:38:51;10.80;99.90
13322;DHT22;6730;46.248;6.930;2023-10-31T02:41:17;10.80;99.90
13322;DHT22;6730;46.248;6.930;2023-10-31T02:43:43;10.50;99.90
13322;DHT22;6730;46.248;6.930;2023-10-31T02:46:08;10.20;99.90
13322;DHT22;6730;46.248;6.930;2023-10-31T02:48:37;10.40;99.90
13322;DHT22;6730;46.248;6.930;2023-10-31T02:51:06;10.30;99.90
13322;DHT22;6730;46.248;6.930;2023-10-31T02:53:38;10.30;99.90
13322;DHT22;6730;46.248;6.930;2023-10-31T02:56:04;10.20;99.90
13322;DHT22;6730;46.248;6.930;2023-10-31T02:58:29;9.80;99.90
13322;DHT22;6730;46.248;6.930;2023-10-31T03:00:55;10.00;99.90
13322;DHT22;6730;46.248;6.930;2023-10-31T03:03:21;10.10;99.90
13322;DHT22;6730;46.248;6.930;2023-10-31T03:05:46;10.10;99.90
13322;DHT22;6730;46.248;6.930;2023-10-31T03:08:12;10.00;99.90
13322;DHT22;6730;46.248;6.930;2023-10-31T03:10:38;10.10;99.90
13322;DHT22;6730;46.248;6.930;2023-10-31T03:13:05;10.10;99.90
13322;DHT22;6730;46.248;6.930;2023-10-31T03:15:30;10.00;99.90
13322;DHT22;6730;46.248;6.930;2023-10-31T03:17:56;9.80;99.90
13322;DHT22;6730;46.248;6.930;2023-10-31T03:20:22;9.80;99.90
13322;DHT22;6730;46.248;6.930;2023-10-31T03:22:47;9.90;99.90
13322;DHT22;6730;46.248;6.930;2023-10-31T03:25:13;9.90;99.90
13322;DHT22;6730;46.248;6.930;2023-10-31T03:27:39;10.00;99.90
13322;DHT22;6730;46.248;6.930;2023-10-31T03:30:05;10.00;99.90
13322;DHT22;6730;46.248;6.930;2023-10-31T03:32:31;9.90;99.90
13322;DHT22;6730;46.248;6.930;2023-10-31T03:34:56;9.90;99.90
13322;DHT22;6730;46.248;6.930;2023-10-31T03:37:22;10.20;99.90
13322;DHT22;6730;46.248;6.930;2023-10-31T03:39:48;10.30;99.90
13322;DHT22;6730;46.248;6.930;2023-10-31T03:42:13;10.30;99.90
13322;DHT22;6730;46.248;6.930;2023-10-31T03:44:39;10.20;99.90
13322;DHT22;6730;46.248;6.930;2023-10-31T03:47:04;10.20;99.90
13322;DHT22;6730;46.248;6.930;2023-10-31T03:49:30;10.00;99.90
13322;DHT22;6730;46.248;6.930;2023-10-31T03:51:56;10.10;99.90
13322;DHT22;6730;46.248;6.930;2023-10-31T03:54:22;10.10;99.90
13322;DHT22;6730;46.248;6.930;2023-10-31T03:56:47;10.10;99.90
13322;DHT22;6730;46.248;6.930;2023-10-31T03:59:14;10.30;99.90
13322;DHT22;6730;46.248;6.930;2023-10-31T04:01:40;10.50;99.90
13322;DHT22;6730;46.248;6.930;2023-10-31T04:04:06;10.50;99.90
13322;DHT22;6730;46.248;6.930;2023-10-31T04:06:32;10.10;99.90
13322;DHT22;6730;46.248;6.930;2023-10-31T04:08:57;10.10;99.90
13322;DHT22;6730;46.248;6.930;2023-10-31T04:11:23;10.10;99.90
13322;DHT22;6730;46.248;6.930;2023-10-31T04:13:49;10.10;99.90
13322;DHT22;6730;46.248;6.930;2023-10-31T04:16:15;10.00;99.90
13322;DHT22;6730;46.248;6.930;2023-10-31T04:18:41;10.00;99.90
13322;DHT22;6730;46.248;6.930;2023-10-31T04:21:06;9.80;99.90
13322;DHT22;6730;46.248;6.930;2023-10-31T04:23:32;9.60;99.90
13322;DHT22;6730;46.248;6.930;2023-10-31T04:25:57;9.50;99.90
13322;DHT22;6730;46.248;6.930;2023-10-31T04:28:23;9.60;99.90
13322;DHT22;6730;46.248;6.930;2023-10-31T04:30:49;9.60;99.90
13322;DHT22;6730;46.248;6.930;2023-10-31T04:33:14;9.70;99.90
13322;DHT22;6730;46.248;6.930;2023-10-31T04:35:40;9.80;99.90
13322;DHT22;6730;46.248;6.930;2023-10-31T04:38:06;9.80;99.90
13322;DHT22;6730;46.248;6.930;2023-10-31T04:40:31;9.70;99.90
13322;DHT22;6730;46.248;6.930;2023-10-31T04:42:57;9.70;99.90
13322;DHT22;6730;46.248;6.930;2023-10-31T04:45:22;9.80;99.90
13322;DHT22;6730;46.248;6.930;2023-10-31T04:47:48;9.90;99.90
13322;DHT22;6730;46.248;6.930;2023-10-31T04:50:14;10.00;99.90
13322;DHT22;6730;46.248;6.930;2023-10-31T04:52:40;9.90;99.90
13322;DHT22;6730;46.248;6.930;2023-10-31T04:55:06;10.00;99.90
13322;DHT22;6730;46.248;6.930;2023-10-31T04:57:32;10.10;99.90
13322;DHT22;6730;46.248;6.930;2023-10-31T04:59:58;10.30;99.90
13322;DHT22;6730;46.248;6.930;2023-10-31T05:02:24;10.20;99.90
13322;DHT22;6730;46.248;6.930;2023-10-31T05:04:50;10.00;99.90
13322;DHT22;6730;46.248;6.930;2023-10-31T05:07:19;10.00;99.90
13322;DHT22;6730;46.248;6.930;2023-10-31T05:09:45;9.90;99.90
13322;DHT22;6730;46.248;6.930;2023-10-31T05:12:11;9.80;99.90
13322;DHT22;6730;46.248;6.930;2023-10-31T05:14:37;9.90;99.90
13322;DHT22;6730;46.248;6.930;2023-10-31T05:17:04;9.90;99.90
13322;DHT22;6730;46.248;6.930;2023-10-31T05:19:30;9.80;99.90
13322;DHT22;6730;46.248;6.930;2023-10-31T05:21:55;9.90;99.90
13322;DHT22;6730;46.248;6.930;2023-10-31T05:24:21;9.90;99.90
13322;DHT22;6730;46.248;6.930;2023-10-31T05:26:46;10.00;99.90
13322;DHT22;6730;46.248;6.930;2023-10-31T05:29:12;10.10;99.90
13322;DHT22;6730;46.248;6.930;2023-10-31T05:31:38;10.10;99.90
13322;DHT22;6730;46.248;6.930;2023-10-31T05:34:04;10.10;99.90
13322;DHT22;6730;46.248;6.930;2023-10-31T05:36:30;10.00;99.90
13322;DHT22;6730;46.248;6.930;2023-10-31T05:38:56;9.90;99.90
13322;DHT22;6730;46.248;6.930;2023-10-31T05:41:22;9.90;99.90
13322;DHT22;6730;46.248;6.930;2023-10-31T05:43:47;9.90;99.90
13322;DHT22;6730;46.248;6.930;2023-10-31T05:46:13;10.00;99.90
13322;DHT22;6730;46.248;6.930;2023-10-31T05:48:41;10.00;99.90
13322;DHT22;6730;46.248;6.930;2023-10-31T05:51:16;9.90;99.90
13322;DHT22;6730;46.248;6.930;2023-10-31T05:53:44;9.90;99.90
13322;DHT22;6730;46.248;6.930;2023-10-31T05:56:14;10.20;99.90
13322;DHT22;6730;46.248;6.930;2023-10-31T05:58:41;10.30;99.90
13322;DHT22;6730;46.248;6.930;2023-10-31T06:01:07;10.20;99.90
13322;DHT22;6730;46.248;6.930;2023-10-31T06:03:33;10.30;99.90
13322;DHT22;6730;46.248;6.930;2023-10-31T06:05:59;10.30;99.90
13322;DHT22;6730;46.248;6.930;2023-10-31T06:08:25;10.40;99.90
13322;DHT22;6730;46.248;6.930;2023-10-31T06:10:55;10.50;99.90
13322;DHT22;6730;46.248;6.930;2023-10-31T06:13:21;10.20;99.90
13322;DHT22;6730;46.248;6.930;2023-10-31T06:15:47;10.10;99.90
13322;DHT22;6730;46.248;6.930;2023-10-31T06:18:13;10.20;99.90
13322;DHT22;6730;46.248;6.930;2023-10-31T06:20:38;10.10;99.90
13322;DHT22;6730;46.248;6.930;2023-10-31T06:23:05;10.10;99.90
13322;DHT22;6730;46.248;6.930;2023-10-31T06:25:31;10.00;99.90
13322;DHT22;6730;46.248;6.930;2023-10-31T06:27:56;9.90;99.90
13322;DHT22;6730;46.248;6.930;2023-10-31T06:30:22;10.00;99.90
13322;DHT22;6730;46.248;6.930;2023-10-31T06:32:50;10.10;99.90
13322;DHT22;6730;46.248;6.930;2023-10-31T06:35:16;10.10;99.90
13322;DHT22;6730;46.248;6.930;2023-10-31T06:37:42;10.00;99.90
13322;DHT22;6730;46.248;6.930;2023-10-31T06:40:11;10.30;99.90
13322;DHT22;6730;46.248;6.930;2023-10-31T06:42:37;10.50;99.90
13322;DHT22;6730;46.248;6.930;2023-10-31T06:45:03;10.50;99.90
13322;DHT22;6730;46.248;6.930;2023-10-31T06:47:30;10.70;99.90
13322;DHT22;6730;46.248;6.930;2023-10-31T06:49:56;10.70;99.90
13322;DHT22;6730;46.248;6.930;2023-10-31T06:52:21;10.60;99.90
13322;DHT22;6730;46.248;6.930;2023-10-31T06:54:47;10.30;99.90
13322;DHT22;6730;46.248;6.930;2023-10-31T06:57:12;10.10;99.90
13322;DHT22;6730;46.248;6.930;2023-10-31T06:59:38;10.10;99.90
13322;DHT22;6730;46.248;6.930;2023-10-31T07:02:04;9.90;99.90
13322;DHT22;6730;46.248;6.930;2023-10-31T07:04:30;10.00;99.90
13322;DHT22;6730;46.248;6.930;2023-10-31T07:06:55;10.00;99.90
13322;DHT22;6730;46.248;6.930;2023-10-31T07:09:24;10.00;99.90
13322;DHT22;6730;46.248;6.930;2023-10-31T07:11:50;10.10;99.90
13322;DHT22;6730;46.248;6.930;2023-10-31T07:14:15;10.00;99.90
13322;DHT22;6730;46.248;6.930;2023-10-31T07:16:41;9.60;99.90
13322;DHT22;6730;46.248;6.930;2023-10-31T07:19:09;9.50;99.90
13322;DHT22;6730;46.248;6.930;2023-10-31T07:21:35;9.70;99.90
13322;DHT22;6730;46.248;6.930;2023-10-31T07:24:01;9.90;99.90
13322;DHT22;6730;46.248;6.930;2023-10-31T07:26:27;10.00;99.90
13322;DHT22;6730;46.248;6.930;2023-10-31T07:28:53;9.90;99.90
13322;DHT22;6730;46.248;6.930;2023-10-31T07:31:18;9.80;99.90
13322;DHT22;6730;46.248;6.930;2023-10-31T07:33:47;9.80;99.90
13322;DHT22;6730;46.248;6.930;2023-10-31T07:36:13;9.60;99.90
13322;DHT22;6730;46.248;6.930;2023-10-31T07:38:39;9.50;99.90
13322;DHT22;6730;46.248;6.930;2023-10-31T07:41:04;9.90;99.90
13322;DHT22;6730;46.248;6.930;2023-10-31T07:43:30;10.10;99.90
13322;DHT22;6730;46.248;6.930;2023-10-31T07:45:56;10.40;99.90
13322;DHT22;6730;46.248;6.930;2023-10-31T07:48:21;10.60;99.90
13322;DHT22;6730;46.248;6.930;2023-10-31T07:50:47;10.50;99.90
13322;DHT22;6730;46.248;6.930;2023-10-31T07:53:13;10.40;99.90
13322;DHT22;6730;46.248;6.930;2023-10-31T07:55:38;10.70;99.90
13322;DHT22;6730;46.248;6.930;2023-10-31T07:58:04;10.80;99.90
13322;DHT22;6730;46.248;6.930;2023-10-31T08:00:29;10.90;99.90
13322;DHT22;6730;46.248;6.930;2023-10-31T08:02:56;10.80;99.90
13322;DHT22;6730;46.248;6.930;2023-10-31T08:05:22;10.60;99.90
13322;DHT22;6730;46.248;6.930;2023-10-31T08:07:47;10.50;99.90
13322;DHT22;6730;46.248;6.930;2023-10-31T08:10:14;10.60;99.90
13322;DHT22;6730;46.248;6.930;2023-10-31T08:12:39;10.50;99.90
13322;DHT22;6730;46.248;6.930;2023-10-31T08:15:05;10.50;99.90
13322;DHT22;6730;46.248;6.930;2023-10-31T08:17:31;10.50;99.90
13322;DHT22;6730;46.248;6.930;2023-10-31T08:19:57;10.50;99.90
13322;DHT22;6730;46.248;6.930;2023-10-31T08:22:23;10.20;99.90
13322;DHT22;6730;46.248;6.930;2023-10-31T08:24:48;10.20;99.90
13322;DHT22;6730;46.248;6.930;2023-10-31T08:27:14;10.50;99.90
13322;DHT22;6730;46.248;6.930;2023-10-31T08:29:40;10.70;99.90
13322;DHT22;6730;46.248;6.930;2023-10-31T08:32:06;10.70;99.90
13322;DHT22;6730;46.248;6.930;2023-10-31T08:34:31;11.00;99.90
13322;DHT22;6730;46.248;6.930;2023-10-31T08:36:57;11.10;99.90
13322;DHT22;6730;46.248;6.930;2023-10-31T08:39:24;11.10;99.90
13322;DHT22;6730;46.248;6.930;2023-10-31T08:41:54;11.00;99.90
13322;DHT22;6730;46.248;6.930;2023-10-31T08:44:20;10.90;99.90
13322;DHT22;6730;46.248;6.930;2023-10-31T08:46:46;11.00;99.90
13322;DHT22;6730;46.248;6.930;2023-10-31T08:49:13;11.00;99.90
13322;DHT22;6730;46.248;6.930;2023-10-31T08:51:38;10.90;99.90
13322;DHT22;6730;46.248;6.930;2023-10-31T08:54:04;10.90;99.90
13322;DHT22;6730;46.248;6.930;2023-10-31T08:56:30;10.80;99.90
13322;DHT22;6730;46.248;6.930;2023-10-31T08:58:56;10.80;99.90
13322;DHT22;6730;46.248;6.930;2023-10-31T09:01:22;10.90;99.90
13322;DHT22;6730;46.248;6.930;2023-10-31T09:03:47;11.10;99.90
13322;DHT22;6730;46.248;6.930;2023-10-31T09:06:13;11.50;99.90
13322;DHT22;6730;46.248;6.930;2023-10-31T09:08:39;11.80;99.90
13322;DHT22;6730;46.248;6.930;2023-10-31T09:11:05;11.70;99.90
13322;DHT22;6730;46.248;6.930;2023-10-31T09:13:32;11.60;99.90
13322;DHT22;6730;46.248;6.930;2023-10-31T09:15:58;11.30;99.90
13322;DHT22;6730;46.248;6.930;2023-10-31T09:18:24;10.50;99.90
13322;DHT22;6730;46.248;6.930;2023-10-31T09:20:50;10.00;99.90
13322;DHT22;6730;46.248;6.930;2023-10-31T09:23:16;9.80;99.90
13322;DHT22;6730;46.248;6.930;2023-10-31T09:25:43;9.80;99.90
13322;DHT22;6730;46.248;6.930;2023-10-31T09:28:09;9.80;99.90
13322;DHT22;6730;46.248;6.930;2023-10-31T09:30:34;9.90;99.90
13322;DHT22;6730;46.248;6.930;2023-10-31T09:33:00;10.40;99.90
13322;DHT22;6730;46.248;6.930;2023-10-31T09:35:26;10.60;99.90
13322;DHT22;6730;46.248;6.930;2023-10-31T09:37:52;10.20;99.90
13322;DHT22;6730;46.248;6.930;2023-10-31T09:40:18;9.80;99.90
13322;DHT22;6730;46.248;6.930;2023-10-31T09:42:44;9.60;99.90
13322;DHT22;6730;46.248;6.930;2023-10-31T09:45:11;9.50;99.90
13322;DHT22;6730;46.248;6.930;2023-10-31T09:47:37;9.60;99.90
13322;DHT22;6730;46.248;6.930;2023-10-31T09:50:04;9.70;99.90
13322;DHT22;6730;46.248;6.930;2023-10-31T09:52:29;9.70;99.90
13322;DHT22;6730;46.248;6.930;2023-10-31T09:54:56;9.70;99.90
13322;DHT22;6730;46.248;6.930;2023-10-31T09:57:22;9.60;99.90
13322;DHT22;6730;46.248;6.930;2023-10-31T09:59:48;9.50;99.90
13322;DHT22;6730;46.248;6.930;2023-10-31T10:02:14;9.60;99.90
13322;DHT22;6730;46.248;6.930;2023-10-31T10:04:39;9.50;99.90
13322;DHT22;6730;46.248;6.930;2023-10-31T10:07:05;9.60;99.90
13322;DHT22;6730;46.248;6.930;2023-10-31T10:09:31;9.80;99.90
13322;DHT22;6730;46.248;6.930;2023-10-31T10:12:01;9.70;99.90
13322;DHT22;6730;46.248;6.930;2023-10-31T10:14:27;9.80;99.90
13322;DHT22;6730;46.248;6.930;2023-10-31T10:16:54;9.90;99.90
13322;DHT22;6730;46.248;6.930;2023-10-31T10:19:22;9.80;99.90
13322;DHT22;6730;46.248;6.930;2023-10-31T10:21:52;9.60;99.90
13322;DHT22;6730;46.248;6.930;2023-10-31T10:24:20;9.60;99.90
13322;DHT22;6730;46.248;6.930;2023-10-31T10:26:46;9.60;99.90
13322;DHT22;6730;46.248;6.930;2023-10-31T10:29:12;9.60;99.90
13322;DHT22;6730;46.248;6.930;2023-10-31T10:31:38;9.50;99.90
13322;DHT22;6730;46.248;6.930;2023-10-31T10:34:04;9.40;99.90
13322;DHT22;6730;46.248;6.930;2023-10-31T10:36:32;9.60;99.90
13322;DHT22;6730;46.248;6.930;2023-10-31T10:38:59;10.00;99.90
13322;DHT22;6730;46.248;6.930;2023-10-31T10:41:28;10.20;99.90
13322;DHT22;6730;46.248;6.930;2023-10-31T10:44:05;10.30;99.90
13322;DHT22;6730;46.248;6.930;2023-10-31T10:46:34;10.10;99.90
13322;DHT22;6730;46.248;6.930;2023-10-31T10:49:04;10.00;99.90
13322;DHT22;6730;46.248;6.930;2023-10-31T10:51:49;9.80;99.90
13322;DHT22;6730;46.248;6.930;2023-10-31T10:54:31;9.80;99.90
13322;DHT22;6730;46.248;6.930;2023-10-31T10:57:17;9.80;99.90
13322;DHT22;6730;46.248;6.930;2023-10-31T10:59:48;9.70;99.90
13322;DHT22;6730;46.248;6.930;2023-10-31T11:02:17;9.80;99.90
13322;DHT22;6730;46.248;6.930;2023-10-31T11:04:43;9.80;99.90
13322;DHT22;6730;46.248;6.930;2023-10-31T11:07:10;9.50;99.90
13322;DHT22;6730;46.248;6.930;2023-10-31T11:09:37;9.40;99.90
13322;DHT22;6730;46.248;6.930;2023-10-31T11:12:04;9.30;99.90
13322;DHT22;6730;46.248;6.930;2023-10-31T11:14:31;9.30;99.90
13322;DHT22;6730;46.248;6.930;2023-10-31T11:17:01;9.40;99.90
13322;DHT22;6730;46.248;6.930;2023-10-31T11:19:29;9.50;99.90
13322;DHT22;6730;46.248;6.930;2023-10-31T11:21:59;9.60;99.90
13322;DHT22;6730;46.248;6.930;2023-10-31T11:24:28;9.70;99.90
13322;DHT22;6730;46.248;6.930;2023-10-31T11:27:01;10.10;99.90
13322;DHT22;6730;46.248;6.930;2023-10-31T11:29:27;10.70;99.90
13322;DHT22;6730;46.248;6.930;2023-10-31T11:31:56;11.00;99.90
13322;DHT22;6730;46.248;6.930;2023-10-31T11:34:22;11.10;99.90
13322;DHT22;6730;46.248;6.930;2023-10-31T11:36:48;10.40;99.90
13322;DHT22;6730;46.248;6.930;2023-10-31T11:39:21;10.00;99.90
13322;DHT22;6730;46.248;6.930;2023-10-31T11:41:54;9.80;99.90
13322;DHT22;6730;46.248;6.930;2023-10-31T11:44:25;9.80;99.90
13322;DHT22;6730;46.248;6.930;2023-10-31T11:46:52;9.80;99.90
13322;DHT22;6730;46.248;6.930;2023-10-31T11:49:46;9.70;99.90
13322;DHT22;6730;46.248;6.930;2023-10-31T11:52:17;9.70;99.90
13322;DHT22;6730;46.248;6.930;2023-10-31T11:54:43;9.70;99.90
13322;DHT22;6730;46.248;6.930;2023-10-31T11:57:09;9.80;99.90
13322;DHT22;6730;46.248;6.930;2023-10-31T11:59:38;9.70;99.90
13322;DHT22;6730;46.248;6.930;2023-10-31T12:02:17;9.50;99.90
13322;DHT22;6730;46.248;6.930;2023-10-31T12:04:44;9.50;99.90
13322;DHT22;6730;46.248;6.930;2023-10-31T12:07:10;9.50;99.90
13322;DHT22;6730;46.248;6.930;2023-10-31T12:09:56;9.70;99.90
13322;DHT22;6730;46.248;6.930;2023-10-31T12:12:31;9.80;99.90
13322;DHT22;6730;46.248;6.930;2023-10-31T12:15:07;9.70;99.90
13322;DHT22;6730;46.248;6.930;2023-10-31T12:17:34;9.80;99.90
13322;DHT22;6730;46.248;6.930;2023-10-31T12:20:04;9.80;99.90
13322;DHT22;6730;46.248;6.930;2023-10-31T12:22:30;10.20;99.90
13322;DHT22;6730;46.248;6.930;2023-10-31T12:25:03;10.50;99.90
13322;DHT22;6730;46.248;6.930;2023-10-31T12:27:46;10.40;99.90
13322;DHT22;6730;46.248;6.930;2023-10-31T12:30:13;10.30;99.90
13322;DHT22;6730;46.248;6.930;2023-10-31T12:32:43;10.40;99.90
13322;DHT22;6730;46.248;6.930;2023-10-31T12:35:12;10.20;99.90
13322;DHT22;6730;46.248;6.930;2023-10-31T12:37:46;10.20;99.90
13322;DHT22;6730;46.248;6.930;2023-10-31T12:40:22;10.50;99.90
13322;DHT22;6730;46.248;6.930;2023-10-31T12:42:49;10.60;99.90
13322;DHT22;6730;46.248;6.930;2023-10-31T12:45:17;10.40;99.90
13322;DHT22;6730;46.248;6.930;2023-10-31T12:47:43;10.70;99.90
13322;DHT22;6730;46.248;6.930;2023-10-31T12:50:12;11.20;99.90
13322;DHT22;6730;46.248;6.930;2023-10-31T12:52:53;10.90;99.90
13322;DHT22;6730;46.248;6.930;2023-10-31T12:55:23;11.00;99.90
13322;DHT22;6730;46.248;6.930;2023-10-31T12:57:50;10.90;99.90
13322;DHT22;6730;46.248;6.930;2023-10-31T13:00:18;10.50;99.90
13322;DHT22;6730;46.248;6.930;2023-10-31T13:03:11;10.50;99.90
13322;DHT22;6730;46.248;6.930;2023-10-31T13:05:37;10.70;99.90
13322;DHT22;6730;46.248;6.930;2023-10-31T13:08:13;10.50;99.90
13322;DHT22;6730;46.248;6.930;2023-10-31T13:10:39;10.60;99.90
13322;DHT22;6730;46.248;6.930;2023-10-31T13:13:05;10.70;99.90
13322;DHT22;6730;46.248;6.930;2023-10-31T13:15:31;10.60;99.90
13322;DHT22;6730;46.248;6.930;2023-10-31T13:17:56;10.80;99.90
13322;DHT22;6730;46.248;6.930;2023-10-31T13:20:25;10.70;99.90
13322;DHT22;6730;46.248;6.930;2023-10-31T13:22:50;10.60;99.90
13322;DHT22;6730;46.248;6.930;2023-10-31T13:25:16;10.60;99.90
13322;DHT22;6730;46.248;6.930;2023-10-31T13:27:45;10.60;99.90
13322;DHT22;6730;46.248;6.930;2023-10-31T13:30:16;10.60;99.90
13322;DHT22;6730;46.248;6.930;2023-10-31T13:32:43;10.70;99.90
13322;DHT22;6730;46.248;6.930;2023-10-31T13:35:08;10.70;99.90
13322;DHT22;6730;46.248;6.930;2023-10-31T13:37:38;10.80;99.90
13322;DHT22;6730;46.248;6.930;2023-10-31T13:40:04;10.70;99.90
13322;DHT22;6730;46.248;6.930;2023-10-31T13:42:30;10.80;99.90
13322;DHT22;6730;46.248;6.930;2023-10-31T13:44:56;10.80;99.90
13322;DHT22;6730;46.248;6.930;2023-10-31T13:47:22;11.10;99.90
13322;DHT22;6730;46.248;6.930;2023-10-31T13:49:47;11.30;99.90
13322;DHT22;6730;46.248;6.930;2023-10-31T13:52:14;11.50;99.90
13322;DHT22;6730;46.248;6.930;2023-10-31T13:54:41;11.60;99.90
13322;DHT22;6730;46.248;6.930;2023-10-31T13:57:07;11.70;99.90
13322;DHT22;6730;46.248;6.930;2023-10-31T13:59:33;11.80;99.90
13322;DHT22;6730;46.248;6.930;2023-10-31T14:02:00;11.90;99.90
13322;DHT22;6730;46.248;6.930;2023-10-31T14:04:25;11.80;99.90
13322;DHT22;6730;46.248;6.930;2023-10-31T14:06:51;11.50;99.90
13322;DHT22;6730;46.248;6.930;2023-10-31T14:09:17;11.70;99.90
13322;DHT22;6730;46.248;6.930;2023-10-31T14:11:42;11.90;99.90
13322;DHT22;6730;46.248;6.930;2023-10-31T14:14:08;12.20;99.90
13322;DHT22;6730;46.248;6.930;2023-10-31T14:16:42;12.60;99.90
13322;DHT22;6730;46.248;6.930;2023-10-31T14:19:12;12.60;99.90
13322;DHT22;6730;46.248;6.930;2023-10-31T14:21:38;12.80;99.90
13322;DHT22;6730;46.248;6.930;2023-10-31T14:24:05;12.70;99.90
13322;DHT22;6730;46.248;6.930;2023-10-31T14:26:30;12.80;99.90
13322;DHT22;6730;46.248;6.930;2023-10-31T14:28:58;12.90;99.90
13322;DHT22;6730;46.248;6.930;2023-10-31T14:31:24;12.80;99.90
13322;DHT22;6730;46.248;6.930;2023-10-31T14:33:51;12.70;99.90
13322;DHT22;6730;46.248;6.930;2023-10-31T14:36:16;12.70;99.90
13322;DHT22;6730;46.248;6.930;2023-10-31T14:38:42;12.60;99.90
13322;DHT22;6730;46.248;6.930;2023-10-31T14:41:08;12.40;99.90
13322;DHT22;6730;46.248;6.930;2023-10-31T14:43:35;12.10;99.90
13322;DHT22;6730;46.248;6.930;2023-10-31T14:46:01;12.00;99.90
13322;DHT22;6730;46.248;6.930;2023-10-31T14:48:27;11.80;99.90
13322;DHT22;6730;46.248;6.930;2023-10-31T14:50:53;11.90;99.90
13322;DHT22;6730;46.248;6.930;2023-10-31T14:53:19;11.90;99.90
13322;DHT22;6730;46.248;6.930;2023-10-31T14:55:45;12.00;99.90
13322;DHT22;6730;46.248;6.930;2023-10-31T14:58:11;12.30;99.90
13322;DHT22;6730;46.248;6.930;2023-10-31T15:00:37;12.30;99.90
13322;DHT22;6730;46.248;6.930;2023-10-31T15:03:03;12.30;99.90
13322;DHT22;6730;46.248;6.930;2023-10-31T15:05:29;12.30;99.90
13322;DHT22;6730;46.248;6.930;2023-10-31T15:07:56;12.20;99.90
13322;DHT22;6730;46.248;6.930;2023-10-31T15:10:25;12.00;99.90
13322;DHT22;6730;46.248;6.930;2023-10-31T15:12:54;11.80;99.90
13322;DHT22;6730;46.248;6.930;2023-10-31T15:15:19;11.80;99.90
13322;DHT22;6730;46.248;6.930;2023-10-31T15:17:45;12.00;99.90
13322;DHT22;6730;46.248;6.930;2023-10-31T15:20:13;12.10;99.90
13322;DHT22;6730;46.248;6.930;2023-10-31T15:22:39;12.10;99.90
13322;DHT22;6730;46.248;6.930;2023-10-31T15:25:06;12.10;99.90
13322;DHT22;6730;46.248;6.930;2023-10-31T15:27:32;12.00;99.90
13322;DHT22;6730;46.248;6.930;2023-10-31T15:29:58;11.90;99.90
13322;DHT22;6730;46.248;6.930;2023-10-31T15:32:24;11.90;99.90
13322;DHT22;6730;46.248;6.930;2023-10-31T15:34:49;11.90;99.90
13322;DHT22;6730;46.248;6.930;2023-10-31T15:37:15;11.70;99.90
13322;DHT22;6730;46.248;6.930;2023-10-31T15:39:42;11.50;99.90
13322;DHT22;6730;46.248;6.930;2023-10-31T15:42:08;11.50;99.90
13322;DHT22;6730;46.248;6.930;2023-10-31T15:44:36;11.30;99.90
13322;DHT22;6730;46.248;6.930;2023-10-31T15:47:03;11.20;99.90